EST,Max TemperatureF,Mean TemperatureF,Min TemperatureF,Max Dew PointF,MeanDew PointF,Min DewpointF,Max Humidity, Mean Humidity, Min Humidity, Max Sea Level PressureIn, Mean Sea Level PressureIn, Min Sea Level PressureIn, Max VisibilityMiles, Mean VisibilityMiles, Min VisibilityMiles, Max Wind SpeedMPH, Mean Wind SpeedMPH, Max Gust SpeedMPH,PrecipitationIn, CloudCover, Events, WindDirDegrees
2012-11-1,48,45,42,37,36,34,76,70,63,29.69,29.64,29.60,10,10,10,16,10,21,0.00,7,Rain,260
2012-11-2,50,42,37,37,33,31,79,67,50,29.87,29.75,29.70,10,10,10,17,10,24,0.00,7,,287
2012-11-3,45,42,39,33,29,28,70,60,53,30.04,29.96,29.87,10,10,10,16,12,24,0.00,8,,306
2012-11-4,42,40,39,29,28,27,65,61,57,30.06,30.05,30.03,10,10,10,14,8,,0.00,8,,333
2012-11-5,44,37,30,28,24,22,72,60,49,30.19,30.11,30.04,10,10,10,17,8,22,0.00,6,,340
2012-11-6,39,34,28,27,22,19,75,61,46,30.23,30.16,30.06,10,10,9,8,4,,0.00,5,,67
2012-11-7,42,38,34,26,23,19,61,55,45,30.04,29.95,29.89,10,10,5,15,10,23,0.00,5,Rain-Snow,20
2012-11-8,48,42,37,20,17,12,47,37,26,30.04,29.93,29.86,10,10,10,22,13,30,0.00,2,,321
2012-11-9,53,43,33,32,28,14,79,57,35,30.24,30.15,30.03,10,10,7,22,10,30,0.00,0,,303
2012-11-10,55,44,32,40,35,28,86,73,57,30.39,30.32,30.24,6,5,3,6,1,,0.00,2,Rain,89
2012-11-11,64,50,37,45,39,34,93,71,45,30.47,30.42,30.38,10,7,4,13,4,,0.00,0,,99
2012-11-12,66,54,42,57,49,40,93,81,63,30.43,30.30,30.12,10,7,2,16,6,22,0.00,2,,142
2012-11-13,51,42,34,48,36,25,93,78,46,30.48,30.32,30.18,10,7,2,25,14,39,0.78,6,Rain,316
2012-11-14,46,39,30,29,25,22,82,59,44,30.57,30.50,30.46,10,10,10,10,5,,0.00,3,,20
2012-11-15,46,38,30,28,26,22,79,65,47,30.44,30.38,30.31,10,10,8,7,2,,0.00,1,,60
2012-11-16,48,40,33,30,28,25,89,66,43,30.47,30.36,30.31,10,9,5,9,4,,0.00,0,,325
2012-11-17,53,40,28,30,27,24,85,64,37,30.63,30.57,30.47,10,9,6,10,3,,0.00,0,,309
2012-11-18,48,39,30,35,31,27,88,74,59,30.65,30.60,30.55,9,7,5,8,2,,0.00,1,,77
2012-11-19,50,42,34,34,32,29,82,70,54,30.53,30.41,30.25,10,8,5,10,5,,0.00,1,,40
2012-11-20,50,41,32,36,33,28,88,74,57,30.23,30.17,30.11,10,8,6,5,1,,0.00,0,,286
2012-11-21,54,42,30,33,29,27,89,67,37,30.24,30.20,30.14,10,8,4,7,1,,0.00,0,,3
2012-11-22,55,42,28,33,29,24,89,69,40,30.29,30.22,30.14,10,7,3,5,1,,0.00,0,,260
2012-11-23,59,43,27,37,30,24,93,70,35,30.13,29.94,29.76,10,6,2,20,3,29,0.00,1,,160
2012-11-24,41,36,32,23,19,17,59,49,41,29.96,29.88,29.82,10,10,9,24,18,33,0.00,6,Snow,297
2012-11-25,37,32,27,20,19,17,72,56,48,30.02,29.97,29.93,10,10,7,17,12,28,0.00,5,Snow,266
2012-11-26,46,34,23,27,22,18,85,65,39,30.25,30.15,30.01,10,8,5,10,2,,0.00,1,,286
2012-11-27,37,34,32,32,30,26,96,87,70,30.27,30.23,30.20,7,3,0,10,5,,0.32,8,Fog-Rain-Snow,20
2012-11-28,39,34,28,31,23,19,92,69,50,30.35,30.28,30.23,10,8,3,15,6,,0.00,2,,293
2012-11-29,43,34,26,26,22,18,79,64,47,30.42,30.36,30.32,9,7,4,13,4,20,0.00,0,,269
2012-11-30,46,36,25,30,25,21,85,71,46,30.40,30.36,30.33,9,6,3,8,2,,0.00,3,,84